This is the latest recevied weather packets stored in our database for station/object N7SWJ. If no packets are shown the sender has not sent any weather packets the latest 10 day(s).
| Time | Temp. | Humidity | Pressure | Rain* | Wind** | Luminosity | Snow |
|---|---|---|---|---|---|---|---|
| 1778076767 | 0° C | 97% | 1021.6 hPa | 0 mm | - | 63 W/m² | - |
| 1778076464 | 0.56° C | 97% | 1021.6 hPa | 1.27 mm | - | 63 W/m² | - |
| 1778076161 | 0.56° C | 97% | 1021.6 hPa | 1.27 mm | - | 59 W/m² | - |
| 1778075858 | 0° C | 97% | 1021.6 hPa | 0 mm | - | 52 W/m² | - |
| 1778075554 | 0° C | 97% | 1021.4 hPa | 0 mm | - | 49 W/m² | - |
| 1778075251 | 0° C | 97% | 1021.5 hPa | 0 mm | - | 48 W/m² | - |
| 1778074948 | 0° C | 97% | 1021.4 hPa | 0 mm | - | 42 W/m² | - |
| 1778074645 | 0° C | 97% | 1021.4 hPa | 0 mm | - | 49 W/m² | - |
| 1778074341 | 0° C | 97% | 1021.3 hPa | 0 mm | - | 43 W/m² | - |
| 1778074038 | 0° C | 97% | 1020.9 hPa | 0 mm | - | 30 W/m² | - |
| 1778073735 | 0° C | 97% | 1020.8 hPa | 1.78 mm | - | 30 W/m² | - |
| 1778073433 | 0° C | 97% | 1021.1 hPa | 1.78 mm | - | 34 W/m² | - |
| 1778073129 | 0° C | 97% | 1021.2 hPa | 0 mm | - | 28 W/m² | - |
| 1778072826 | 0° C | 97% | 1020.9 hPa | 0 mm | - | 19 W/m² | - |
| 1778072523 | 0° C | 97% | 1020.8 hPa | 0 mm | - | 17 W/m² | - |
| 1778072221 | 0° C | 97% | 1020.8 hPa | 0 mm | - | 15 W/m² | - |
| 1778071919 | 0° C | 97% | 1020.7 hPa | 0 mm | - | 14 W/m² | - |
| 1778071616 | 0° C | 97% | 1020.7 hPa | 0 mm | - | 14 W/m² | - |
| 1778071314 | 0° C | 97% | 1020.6 hPa | 0 mm | - | 12 W/m² | - |
| 1778071011 | 0° C | 97% | 1020.5 hPa | 0 mm | - | 11 W/m² | - |
| 1778070710 | 0° C | 97% | 1020.7 hPa | 0 mm | - | 9 W/m² | - |
| 1778070406 | 0° C | 97% | 1020.5 hPa | 0 mm | - | 6 W/m² | - |
| 1778070104 | 0° C | 97% | 1020.3 hPa | 0 mm | - | 5 W/m² | - |
| 1778069801 | 0° C | 97% | 1020.4 hPa | 0 mm | - | 4 W/m² | - |
| 1778069497 | 0° C | 97% | 1020.4 hPa | 0 mm | - | 3 W/m² | - |
* Rain latest hour (hover to see other rain measurements)
** Current wind speed in m/s (hover to see current wind gust speed)